createdAt,value
2022-12-27T00:01:51.400Z,3.83
2022-12-27T00:04:17.906Z,3.03
2022-12-27T00:06:44.419Z,2.80
2022-12-27T00:09:10.962Z,2.10
2022-12-27T00:11:38.837Z,2.55
2022-12-27T00:14:06.822Z,2.25
2022-12-27T00:16:34.338Z,1.98
2022-12-27T00:19:01.059Z,5.72
2022-12-27T00:21:27.629Z,2.13
2022-12-27T00:23:56.070Z,2.75
2022-12-27T00:26:31.222Z,2.50
2022-12-27T00:28:58.277Z,2.08
2022-12-27T00:31:26.639Z,2.20
2022-12-27T00:33:55.574Z,2.63
2022-12-27T00:36:24.835Z,2.10
2022-12-27T00:38:52.518Z,2.33
2022-12-27T00:41:19.660Z,1.80
2022-12-27T00:43:46.864Z,3.15
2022-12-27T00:46:14.505Z,2.13
2022-12-27T00:48:41.482Z,1.85
2022-12-27T00:51:13.231Z,2.60
2022-12-27T00:53:39.870Z,2.25
2022-12-27T00:56:12.081Z,1.83
2022-12-27T00:58:41.009Z,2.53
2022-12-27T01:01:10.077Z,2.53
2022-12-27T01:03:36.817Z,1.75
2022-12-27T01:06:05.795Z,2.75
2022-12-27T01:08:32.224Z,2.30
2022-12-27T01:10:59.185Z,1.98
2022-12-27T01:13:25.712Z,2.72
2022-12-27T01:15:52.423Z,2.55
2022-12-27T01:18:18.869Z,1.80
2022-12-27T01:20:45.348Z,2.50
2022-12-27T01:23:11.883Z,2.10
2022-12-27T01:25:38.308Z,2.58
2022-12-27T01:28:05.384Z,2.03
2022-12-27T01:30:31.859Z,2.47
2022-12-27T01:32:58.342Z,2.25
2022-12-27T01:35:24.947Z,2.50
2022-12-27T01:37:52.023Z,2.42
2022-12-27T01:40:18.885Z,2.25
2022-12-27T01:42:55.584Z,2.17
2022-12-27T01:45:24.484Z,2.28
2022-12-27T01:48:01.265Z,2.58
2022-12-27T01:50:30.937Z,2.65
2022-12-27T01:52:57.312Z,2.25
2022-12-27T01:55:38.883Z,2.58
2022-12-27T01:58:12.001Z,2.60
2022-12-27T02:00:41.316Z,3.25
2022-12-27T02:03:08.061Z,2.35
2022-12-27T02:09:41.359Z,2.55
2022-12-27T02:12:10.179Z,2.63
2022-12-27T02:14:46.034Z,2.55
2022-12-27T02:17:25.146Z,3.28
2022-12-27T02:20:05.115Z,1.80
2022-12-27T02:23:12.033Z,2.05
2022-12-27T02:25:50.620Z,2.58
2022-12-27T02:28:53.203Z,2.35
2022-12-27T02:31:43.547Z,2.30
2022-12-27T02:34:24.222Z,2.40
2022-12-27T02:36:56.335Z,2.33
2022-12-27T02:39:23.637Z,3.25
2022-12-27T02:42:10.686Z,3.05
2022-12-27T02:44:55.825Z,2.17
2022-12-27T02:47:43.381Z,2.47
2022-12-27T02:50:30.872Z,2.22
2022-12-27T02:53:26.825Z,2.53
2022-12-27T02:56:37.247Z,2.80
2022-12-27T02:59:38.242Z,3.85
2022-12-27T03:02:38.328Z,2.30
2022-12-27T03:05:25.472Z,2.60
2022-12-27T03:08:21.484Z,2.17
2022-12-27T03:11:18.108Z,2.33
2022-12-27T03:14:25.778Z,2.40
2022-12-27T03:16:58.453Z,3.00
2022-12-27T03:19:52.305Z,2.20
2022-12-27T03:22:41.384Z,2.08
2022-12-27T03:25:27.856Z,2.40
2022-12-27T03:28:30.246Z,2.28
2022-12-27T03:31:27.965Z,2.55
2022-12-27T03:34:04.483Z,2.63
2022-12-27T03:36:52.845Z,2.95
2022-12-27T03:39:26.267Z,2.03
2022-12-27T03:42:21.897Z,2.25
2022-12-27T03:44:48.965Z,2.10
2022-12-27T03:47:34.850Z,2.33
2022-12-27T03:50:25.734Z,1.92
2022-12-27T03:53:00.900Z,3.20
2022-12-27T03:55:33.124Z,2.50
2022-12-27T03:58:00.165Z,2.38
2022-12-27T04:00:28.027Z,1.92
2022-12-27T04:02:54.957Z,2.28
2022-12-27T04:05:21.569Z,2.95
2022-12-27T04:08:06.332Z,2.13
2022-12-27T04:10:51.326Z,1.85
2022-12-27T04:13:36.109Z,2.28
2022-12-27T04:16:21.129Z,2.50
2022-12-27T04:19:06.010Z,2.97
2022-12-27T04:21:51.028Z,2.22
2022-12-27T04:24:35.869Z,2.25
2022-12-27T04:27:20.561Z,3.53
2022-12-27T04:30:05.387Z,2.38
2022-12-27T04:32:50.413Z,2.22
2022-12-27T04:35:16.877Z,1.92
2022-12-27T04:37:43.321Z,2.05
2022-12-27T04:40:28.640Z,2.95
2022-12-27T04:43:13.787Z,2.08
2022-12-27T04:45:58.954Z,2.83
2022-12-27T04:48:47.160Z,2.30
2022-12-27T04:51:32.203Z,2.67
2022-12-27T04:54:17.410Z,1.98
2022-12-27T04:56:43.871Z,2.80
2022-12-27T04:59:28.562Z,2.40
2022-12-27T05:02:04.500Z,2.53
2022-12-27T05:04:32.838Z,2.40
2022-12-27T05:07:19.935Z,2.67
2022-12-27T05:10:12.806Z,2.20
2022-12-27T05:12:57.731Z,2.20
2022-12-27T05:15:24.290Z,2.53
2022-12-27T05:17:50.714Z,2.60
2022-12-27T05:20:17.186Z,2.03
2022-12-27T05:23:02.064Z,1.95
2022-12-27T05:25:34.595Z,2.17
2022-12-27T05:28:05.590Z,3.00
2022-12-27T05:30:40.883Z,2.00
2022-12-27T05:33:07.883Z,1.90
2022-12-27T05:35:35.133Z,2.92
2022-12-27T05:38:01.863Z,1.88
2022-12-27T05:40:28.420Z,1.65
2022-12-27T05:42:54.872Z,2.22
2022-12-27T05:45:21.478Z,2.00
2022-12-27T05:47:47.895Z,2.20
2022-12-27T05:50:14.327Z,1.83
2022-12-27T05:52:41.506Z,2.00
2022-12-27T05:55:08.894Z,2.08
2022-12-27T05:57:35.358Z,2.10
2022-12-27T06:00:02.314Z,2.00
2022-12-27T06:02:29.021Z,2.22
2022-12-27T06:04:55.595Z,1.60
2022-12-27T06:07:22.063Z,1.92
2022-12-27T06:09:48.999Z,1.75
2022-12-27T06:12:15.603Z,1.60
2022-12-27T06:14:42.150Z,1.50
2022-12-27T06:17:08.585Z,1.95
2022-12-27T06:19:35.368Z,2.10
2022-12-27T06:22:01.960Z,2.00
2022-12-27T06:24:28.436Z,2.00
2022-12-27T06:26:54.834Z,2.38
2022-12-27T06:29:21.416Z,2.17
2022-12-27T06:31:48.268Z,1.67
2022-12-27T06:34:14.834Z,1.80
2022-12-27T06:36:41.321Z,2.08
2022-12-27T06:39:07.885Z,1.98
2022-12-27T06:41:34.330Z,1.63
2022-12-27T06:44:00.831Z,2.08
2022-12-27T06:46:27.464Z,2.13
2022-12-27T06:48:53.885Z,2.60
2022-12-27T06:51:21.956Z,2.38
2022-12-27T06:53:49.352Z,1.88
2022-12-27T06:56:22.087Z,2.10
2022-12-27T06:58:50.294Z,3.30
2022-12-27T07:01:21.259Z,2.85
2022-12-27T07:03:52.221Z,2.70
2022-12-27T07:06:20.081Z,2.53
2022-12-27T07:08:47.280Z,2.70
2022-12-27T07:11:14.723Z,2.08
2022-12-27T07:13:46.486Z,2.45
2022-12-27T07:16:15.060Z,2.65
2022-12-27T07:18:42.115Z,2.08
2022-12-27T07:21:20.313Z,2.60
2022-12-27T07:23:47.070Z,2.47
2022-12-27T07:26:23.005Z,2.03
2022-12-27T07:28:49.926Z,3.30
2022-12-27T07:31:20.827Z,2.55
2022-12-27T07:33:47.425Z,2.38
2022-12-27T07:36:16.998Z,1.80
2022-12-27T07:38:44.366Z,2.15
2022-12-27T07:41:12.258Z,1.98
2022-12-27T07:43:39.324Z,2.70
2022-12-27T07:46:09.104Z,2.10
2022-12-27T07:48:36.208Z,2.65
2022-12-27T07:51:03.849Z,2.50
2022-12-27T07:53:30.708Z,2.45
2022-12-27T07:55:57.693Z,2.10
2022-12-27T07:58:24.469Z,1.98
2022-12-27T08:00:52.541Z,2.28
2022-12-27T08:03:19.672Z,2.05
2022-12-27T08:05:52.417Z,2.42
2022-12-27T08:08:23.388Z,2.10
2022-12-27T08:10:49.978Z,2.42
2022-12-27T08:13:16.416Z,2.08
2022-12-27T08:15:43.841Z,1.77
2022-12-27T08:18:10.652Z,1.67
2022-12-27T08:20:37.287Z,2.72
2022-12-27T08:23:03.878Z,2.70
2022-12-27T08:25:30.778Z,1.92
2022-12-27T08:28:12.742Z,2.45
2022-12-27T08:30:40.897Z,1.75
2022-12-27T08:33:08.082Z,1.92
2022-12-27T08:35:52.676Z,2.80
2022-12-27T08:38:20.327Z,1.67
2022-12-27T08:40:46.896Z,2.38
2022-12-27T08:43:14.353Z,1.92
2022-12-27T08:45:40.836Z,2.40
2022-12-27T08:48:07.622Z,2.53
2022-12-27T08:50:34.359Z,2.40
2022-12-27T08:53:03.635Z,2.33
2022-12-27T08:55:30.834Z,2.33
2022-12-27T08:58:09.208Z,1.70
2022-12-27T09:00:40.380Z,2.00
2022-12-27T09:03:06.917Z,2.08
2022-12-27T09:05:39.624Z,2.55
2022-12-27T09:08:08.183Z,2.05
2022-12-27T09:10:34.649Z,2.10
2022-12-27T09:13:01.070Z,1.70
2022-12-27T09:15:27.659Z,2.70
2022-12-27T09:17:55.279Z,2.42
2022-12-27T09:20:21.728Z,2.20
2022-12-27T09:22:48.176Z,2.70
2022-12-27T09:25:14.706Z,2.00
2022-12-27T09:27:41.198Z,2.00
2022-12-27T09:30:09.253Z,2.10
2022-12-27T09:32:35.861Z,2.17
2022-12-27T09:35:03.191Z,2.05
2022-12-27T09:37:29.703Z,2.13
2022-12-27T09:39:56.948Z,2.25
2022-12-27T09:43:16.245Z,2.50
2022-12-27T09:45:50.405Z,2.63
2022-12-27T09:48:33.574Z,2.17
2022-12-27T09:51:07.081Z,2.50
2022-12-27T09:53:46.419Z,2.03
2022-12-27T09:56:17.860Z,1.90
2022-12-27T09:58:52.564Z,2.28
2022-12-27T10:01:23.760Z,2.38
2022-12-27T10:03:51.200Z,2.60
2022-12-27T10:06:20.345Z,2.10
2022-12-27T10:09:22.291Z,2.90
2022-12-27T10:12:09.867Z,2.28
2022-12-27T10:14:56.046Z,2.50
2022-12-27T10:18:00.043Z,2.58
2022-12-27T10:20:53.627Z,2.17
2022-12-27T10:23:24.317Z,2.38
2022-12-27T10:26:01.414Z,2.90
2022-12-27T10:28:38.604Z,2.30
2022-12-27T10:31:05.421Z,2.45
2022-12-27T10:33:34.665Z,2.38
2022-12-27T10:36:09.506Z,2.47
2022-12-27T10:38:36.159Z,2.05
2022-12-27T10:41:38.525Z,2.53
2022-12-27T10:44:11.510Z,2.60
2022-12-27T10:46:39.180Z,2.45
2022-12-27T10:49:21.316Z,1.63
2022-12-27T10:51:50.024Z,2.63
2022-12-27T10:54:22.317Z,2.08
2022-12-27T10:56:48.931Z,2.20
2022-12-27T10:59:19.839Z,2.20
2022-12-27T11:02:00.115Z,2.05
2022-12-27T11:04:27.101Z,3.42
2022-12-27T11:07:00.066Z,2.42
2022-12-27T11:09:46.456Z,2.72
2022-12-27T11:12:24.507Z,3.15
2022-12-27T11:14:56.969Z,2.60
2022-12-27T11:17:45.590Z,3.20
2022-12-27T11:20:14.948Z,2.65
2022-12-27T11:23:01.350Z,2.53
2022-12-27T11:25:29.376Z,2.75
2022-12-27T11:28:03.411Z,2.67
2022-12-27T11:30:33.743Z,2.63
2022-12-27T11:33:06.215Z,3.03
2022-12-27T11:35:44.762Z,4.50
2022-12-27T11:38:30.438Z,3.45
2022-12-27T11:41:03.326Z,3.88
2022-12-27T11:43:36.538Z,2.85
2022-12-27T11:46:10.571Z,2.50
2022-12-27T11:48:42.152Z,3.00
2022-12-27T11:53:56.609Z,3.10
2022-12-27T11:56:37.976Z,2.70
2022-12-27T11:59:04.380Z,2.67
2022-12-27T12:01:44.302Z,3.13
2022-12-27T12:04:38.839Z,3.45
2022-12-27T12:07:17.458Z,2.45
2022-12-27T12:09:49.753Z,2.60
2022-12-27T12:12:22.010Z,3.33
2022-12-27T12:15:23.648Z,2.47
2022-12-27T12:18:17.712Z,2.88
2022-12-27T12:20:59.364Z,2.95
2022-12-27T12:23:25.750Z,2.67
2022-12-27T12:26:20.136Z,3.47
2022-12-27T12:28:59.890Z,2.08
2022-12-27T12:31:55.995Z,3.47
2022-12-27T12:34:37.646Z,3.35
2022-12-27T12:37:17.755Z,2.55
2022-12-27T12:40:27.391Z,2.03
2022-12-27T12:43:17.544Z,3.15
2022-12-27T12:46:10.854Z,2.33
2022-12-27T12:49:17.094Z,2.85
2022-12-27T12:52:20.483Z,2.50
2022-12-27T12:55:05.821Z,3.08
2022-12-27T12:57:44.663Z,2.08
2022-12-27T13:00:42.030Z,2.92
2022-12-27T13:03:23.483Z,2.67
2022-12-27T13:05:59.114Z,3.47
2022-12-27T13:08:43.768Z,2.53
2022-12-27T13:11:55.429Z,2.45
2022-12-27T13:14:59.729Z,2.97
2022-12-27T13:18:10.971Z,2.88
2022-12-27T13:21:00.298Z,2.83
2022-12-27T13:23:32.911Z,2.42
2022-12-27T13:26:30.227Z,3.08
2022-12-27T13:29:23.931Z,3.38
2022-12-27T13:32:10.985Z,3.03
2022-12-27T13:34:37.484Z,2.40
2022-12-27T13:37:31.064Z,2.40
2022-12-27T13:40:24.339Z,2.20
2022-12-27T13:43:29.065Z,2.70
2022-12-27T13:46:13.860Z,2.63
2022-12-27T13:49:05.264Z,3.05
2022-12-27T13:51:50.700Z,2.65
2022-12-27T13:54:41.555Z,3.10
2022-12-27T13:57:17.332Z,3.40
2022-12-27T13:59:51.194Z,2.65
2022-12-27T14:02:32.871Z,3.05
2022-12-27T14:05:02.379Z,3.42
2022-12-27T14:07:38.221Z,3.08
2022-12-27T14:10:19.703Z,2.90
2022-12-27T14:12:57.288Z,3.30
2022-12-27T14:15:41.388Z,2.88
2022-12-27T14:18:19.931Z,2.35
2022-12-27T14:21:17.369Z,2.72
2022-12-27T14:24:03.728Z,3.17
2022-12-27T14:26:55.415Z,2.80
2022-12-27T14:29:37.677Z,2.63
2022-12-27T14:32:13.959Z,3.55
2022-12-27T14:35:27.386Z,2.47
2022-12-27T14:38:21.024Z,2.80
2022-12-27T14:41:10.072Z,3.08
2022-12-27T14:43:54.500Z,2.50
2022-12-27T14:46:45.673Z,3.05
2022-12-27T14:49:34.575Z,3.72
2022-12-27T14:52:53.169Z,3.38
2022-12-27T14:55:34.549Z,3.10
2022-12-27T14:58:19.484Z,2.55
2022-12-27T15:01:15.015Z,3.38
2022-12-27T15:03:54.343Z,2.85
2022-12-27T15:06:33.220Z,3.10
2022-12-27T15:09:19.976Z,2.78
2022-12-27T15:11:57.835Z,2.95
2022-12-27T15:14:53.908Z,3.38
2022-12-27T15:17:51.130Z,2.83
2022-12-27T15:20:25.503Z,3.08
2022-12-27T15:23:07.006Z,3.13
2022-12-27T15:25:50.191Z,3.53
2022-12-27T15:28:25.780Z,4.13
2022-12-27T15:31:22.451Z,3.20
2022-12-27T15:34:19.950Z,3.78
2022-12-27T15:36:49.154Z,2.55
2022-12-27T15:39:34.086Z,2.80
2022-12-27T15:42:23.591Z,3.40
2022-12-27T15:45:27.148Z,4.18
2022-12-27T15:48:28.984Z,5.00
2022-12-27T15:50:59.420Z,3.55
2022-12-27T15:53:44.915Z,4.63
2022-12-27T15:56:20.202Z,3.58
2022-12-27T15:59:25.007Z,4.22
2022-12-27T16:02:23.715Z,5.13
2022-12-27T16:04:51.986Z,3.63
2022-12-27T16:07:37.160Z,3.78
2022-12-27T16:10:35.718Z,3.70
2022-12-27T16:13:05.007Z,3.95
2022-12-27T16:15:34.540Z,3.78
2022-12-27T16:18:02.571Z,4.05
2022-12-27T16:20:31.503Z,4.90
2022-12-27T16:23:10.046Z,3.63
2022-12-27T16:25:37.935Z,4.32
2022-12-27T16:28:20.244Z,4.68
2022-12-27T16:30:50.084Z,3.40
2022-12-27T16:33:33.614Z,4.05
2022-12-27T16:36:12.275Z,3.63
2022-12-27T16:38:46.700Z,3.70
2022-12-27T16:41:17.703Z,4.18
2022-12-27T16:43:59.488Z,4.03
2022-12-27T16:49:28.798Z,3.15
2022-12-27T16:52:14.891Z,2.90
2022-12-27T16:55:15.545Z,3.92
2022-12-27T16:57:47.977Z,3.90
2022-12-27T17:00:36.495Z,3.30
2022-12-27T17:03:20.865Z,3.00
2022-12-27T17:06:22.165Z,3.15
2022-12-27T17:08:39.105Z,3.97
2022-12-27T17:11:14.836Z,3.47
2022-12-27T17:13:51.007Z,2.97
2022-12-27T17:16:22.684Z,3.78
2022-12-27T17:18:53.481Z,3.42
2022-12-27T17:21:34.094Z,3.03
2022-12-27T17:24:07.523Z,3.58
2022-12-27T17:27:05.989Z,3.92
2022-12-27T17:30:13.685Z,4.28
2022-12-27T17:33:23.526Z,4.10
2022-12-27T17:36:01.919Z,5.15
2022-12-27T17:38:51.629Z,5.18
2022-12-27T17:41:53.739Z,4.88
2022-12-27T17:44:38.177Z,5.30
2022-12-27T17:47:25.679Z,4.10
2022-12-27T17:49:53.753Z,4.85
2022-12-27T17:52:43.959Z,5.13
2022-12-27T17:55:39.522Z,5.55
2022-12-27T17:58:11.762Z,4.35
2022-12-27T18:00:55.022Z,5.30
2022-12-27T18:03:23.262Z,5.63
2022-12-27T18:05:50.127Z,5.47
2022-12-27T18:08:22.525Z,5.25
2022-12-27T18:10:49.185Z,5.30
2022-12-27T18:13:20.671Z,5.05
2022-12-27T18:15:49.630Z,5.30
2022-12-27T18:18:28.141Z,5.75
2022-12-27T18:21:04.063Z,6.20
2022-12-27T18:23:40.674Z,5.68
2022-12-27T18:26:13.395Z,5.78
2022-12-27T18:28:41.194Z,5.93
2022-12-27T18:31:19.769Z,5.78
2022-12-27T18:33:50.567Z,6.60
2022-12-27T18:36:31.860Z,4.00
2022-12-27T18:39:05.070Z,6.40
2022-12-27T18:41:46.586Z,6.28
2022-12-27T18:44:26.512Z,7.15
2022-12-27T18:47:04.332Z,6.93
2022-12-27T18:49:33.916Z,6.40
2022-12-27T18:52:02.240Z,6.97
2022-12-27T18:54:28.660Z,7.22
2022-12-27T18:57:00.395Z,7.05
2022-12-27T18:59:30.032Z,7.32
2022-12-27T19:01:59.497Z,8.10
2022-12-27T19:04:31.669Z,8.77
2022-12-27T19:07:01.057Z,8.52
2022-12-27T19:09:35.233Z,8.52
2022-12-27T19:12:26.346Z,8.82
2022-12-27T19:14:54.030Z,8.40
2022-12-27T19:17:32.221Z,8.68
2022-12-27T19:20:02.488Z,7.28
2022-12-27T19:22:40.531Z,7.78
2022-12-27T19:25:34.972Z,8.02
2022-12-27T19:28:05.733Z,8.50
2022-12-27T19:30:39.215Z,7.88
2022-12-27T19:33:13.291Z,8.70
2022-12-27T19:35:40.998Z,8.35
2022-12-27T19:38:11.652Z,8.48
2022-12-27T19:40:39.952Z,8.83
2022-12-27T19:43:06.434Z,8.43
2022-12-27T19:45:32.911Z,8.85
2022-12-27T19:47:59.381Z,7.95
2022-12-27T19:50:25.893Z,8.02
2022-12-27T19:52:52.557Z,7.75
2022-12-27T19:55:24.545Z,8.23
2022-12-27T19:57:51.450Z,8.50
2022-12-27T20:00:18.813Z,8.18
2022-12-27T20:02:45.760Z,8.02
2022-12-27T20:05:12.769Z,8.15
2022-12-27T20:07:40.218Z,7.40
2022-12-27T20:10:07.663Z,8.27
2022-12-27T20:12:34.193Z,8.43
2022-12-27T20:15:00.921Z,8.40
2022-12-27T20:17:28.678Z,8.40
2022-12-27T20:19:55.223Z,7.85
2022-12-27T20:22:21.687Z,7.55
2022-12-27T20:24:48.277Z,7.95
2022-12-27T20:27:14.753Z,7.75
2022-12-27T20:29:41.353Z,7.53
2022-12-27T20:32:08.004Z,7.70
2022-12-27T20:34:36.998Z,8.07
2022-12-27T20:37:03.760Z,7.70
2022-12-27T20:39:30.261Z,7.13
2022-12-27T20:41:56.803Z,7.35
2022-12-27T20:44:23.507Z,7.57
2022-12-27T20:46:50.691Z,7.82
2022-12-27T20:49:17.370Z,7.05
2022-12-27T20:51:43.798Z,6.40
2022-12-27T20:54:12.109Z,6.65
2022-12-27T20:56:38.778Z,7.18
2022-12-27T20:59:05.287Z,6.60
2022-12-27T21:01:32.359Z,6.05
2022-12-27T21:03:58.951Z,6.60
2022-12-27T21:06:27.802Z,6.85
2022-12-27T21:08:57.129Z,6.57
2022-12-27T21:11:27.463Z,6.60
2022-12-27T21:13:54.880Z,6.20
2022-12-27T21:16:23.953Z,6.80
2022-12-27T21:18:50.912Z,7.35
2022-12-27T21:21:20.136Z,6.80
2022-12-27T21:23:47.456Z,6.70
2022-12-27T21:26:27.841Z,5.78
2022-12-27T21:28:55.143Z,6.35
2022-12-27T21:31:22.504Z,6.40
2022-12-27T21:33:49.494Z,5.35
2022-12-27T21:36:21.935Z,5.88
2022-12-27T21:38:48.881Z,5.78
2022-12-27T21:41:26.387Z,5.88
2022-12-27T21:43:53.281Z,5.60
2022-12-27T21:46:26.952Z,5.80
2022-12-27T21:49:07.935Z,6.40
2022-12-27T21:51:35.990Z,6.10
2022-12-27T21:54:03.520Z,5.35
2022-12-27T21:56:30.963Z,5.80
2022-12-27T21:58:59.780Z,5.22
2022-12-27T22:01:29.192Z,5.10
2022-12-27T22:03:57.441Z,5.60
2022-12-27T22:06:28.631Z,4.88
2022-12-27T22:09:00.733Z,4.53
2022-12-27T22:11:28.322Z,5.05
2022-12-27T22:13:56.729Z,5.00
2022-12-27T22:16:27.681Z,4.70
2022-12-27T22:18:55.990Z,5.13
2022-12-27T22:21:25.631Z,4.72
2022-12-27T22:23:54.116Z,4.78
2022-12-27T22:26:23.488Z,5.40
2022-12-27T22:28:50.089Z,3.80
2022-12-27T22:31:19.596Z,5.47
2022-12-27T22:33:46.556Z,4.13
2022-12-27T22:36:15.795Z,4.50
2022-12-27T22:38:47.617Z,4.50
2022-12-27T22:41:27.192Z,4.70
2022-12-27T22:43:58.698Z,4.18
2022-12-27T22:46:26.339Z,4.30
2022-12-27T22:48:55.309Z,4.90
2022-12-27T22:51:28.156Z,6.70
2022-12-27T22:53:56.064Z,4.20
2022-12-27T22:56:28.051Z,4.32
2022-12-27T22:58:54.874Z,4.45
2022-12-27T23:01:25.065Z,3.92
2022-12-27T23:03:51.807Z,4.32
2022-12-27T23:06:18.582Z,4.20
2022-12-27T23:08:45.991Z,3.90
2022-12-27T23:11:16.987Z,4.65
2022-12-27T23:13:44.121Z,3.67
2022-12-27T23:16:10.802Z,4.70
2022-12-27T23:18:39.481Z,4.13
2022-12-27T23:21:21.693Z,3.80
2022-12-27T23:23:50.827Z,3.30
2022-12-27T23:26:20.226Z,3.95
2022-12-27T23:28:48.185Z,3.05
2022-12-27T23:31:15.653Z,3.22
2022-12-27T23:33:43.177Z,3.70
2022-12-27T23:36:10.761Z,3.40
2022-12-27T23:38:37.273Z,3.58
2022-12-27T23:41:06.232Z,3.97
2022-12-27T23:43:52.290Z,3.92
2022-12-27T23:46:31.914Z,3.53
2022-12-27T23:49:01.337Z,3.25
2022-12-27T23:51:29.998Z,3.45
2022-12-27T23:53:56.896Z,3.38
2022-12-27T23:56:26.158Z,4.45
2022-12-27T23:58:54.706Z,3.47
